TAF KSPI
KSPI 090527Z 0906/1006 14010KT P6SM SCT250 FM091200 16014G23KT P6SM SCT100 BKN180 FM091700 21015G26KT P6SM SCT040 BKN180 FM092200 22010KT P6SM SCT040 BKN250 FM100400 32006KT P6SM BKN180=
METAR KSPI
WC KSPI
WS KSPI
WV KSPI